Time;durP1;ratioP1;P1;durP2;ratioP2;P2;SDS_P1;SDS_P2;PMS_P1;PMS_P2;Temp;Humidity;BMP_temperature;BMP_pressure;BME280_temperature;BME280_humidity;BME280_pressure;Samples;Min_cycle;Max_cycle;Signal;HPM_P1;HPM_P2
2023/07/21 00:00:13;;;;;;;;;6.00;5.60;;;;;19.83;100.00;98458.09;7736940;22;96286;-63
2023/07/21 00:03:19;;;;;;;;;6.00;5.60;;;;;19.82;100.00;98451.00;7737566;22;96268;-63
2023/07/21 00:06:24;;;;;;;;;6.60;6.60;;;;;19.79;100.00;98455.13;7735950;22;96081;-63
2023/07/21 00:09:28;;;;;;;;;4.40;4.00;;;;;19.76;100.00;98454.91;7709818;22;96929;-63
2023/07/21 00:12:32;;;;;;;;;9.00;8.00;;;;;19.70;100.00;98456.06;7737492;22;96291;-63
2023/07/21 00:15:35;;;;;;;;;6.20;6.20;;;;;19.62;100.00;98443.84;7737187;22;96758;-63
2023/07/21 00:18:41;;;;;;;;;8.00;7.40;;;;;19.62;100.00;98445.75;7735556;22;96336;-63
2023/07/21 00:21:46;;;;;;;;;9.00;9.00;;;;;19.61;100.00;98444.94;7735714;22;96412;-63
2023/07/21 00:24:49;;;;;;;;;5.00;5.00;;;;;19.61;100.00;98444.94;7734241;22;96866;-62
2023/07/21 00:27:52;;;;;;;;;7.60;7.60;;;;;19.59;100.00;98447.19;7734900;22;96930;-62
2023/07/21 00:30:55;;;;;;;;;8.40;7.40;;;;;19.54;100.00;98447.22;7705834;22;96904;-62
2023/07/21 00:33:59;;;;;;;;;7.50;7.00;;;;;19.49;100.00;98438.25;7707957;22;98467;-62
2023/07/21 00:37:04;;;;;;;;;7.50;7.50;;;;;19.50;100.00;98448.09;7707753;22;98459;-63
2023/07/21 00:40:10;;;;;;;;;5.00;5.00;;;;;19.44;100.00;98447.34;7683007;22;96647;-63
2023/07/21 00:43:17;;;;;;;;;9.00;9.00;;;;;19.43;100.00;98443.75;7709023;22;96394;-63
2023/07/21 00:46:23;;;;;;;;;8.40;7.40;;;;;19.42;100.00;98441.31;7707405;22;96311;-63
2023/07/21 00:49:27;;;;;;;;;5.00;5.00;;;;;19.40;100.00;98429.88;7733999;22;96221;-63
2023/07/21 00:52:32;;;;;;;;;7.60;7.00;;;;;19.35;100.00;98438.91;7734763;22;96540;-63
2023/07/21 00:55:35;;;;;;;;;7.00;6.00;;;;;19.35;100.00;98438.13;7734122;22;97434;-63
2023/07/21 00:58:39;;;;;;;;;7.80;7.80;;;;;19.31;100.00;98431.56;7709116;22;96748;-63
2023/07/21 01:01:42;;;;;;;;;7.00;7.00;;;;;19.31;100.00;98429.66;7711480;22;96539;-63
2023/07/21 01:04:46;;;;;;;;;6.00;6.00;;;;;19.29;100.00;98434.63;7738436;22;96785;-63
2023/07/21 01:07:51;;;;;;;;;9.00;8.00;;;;;19.26;100.00;98428.88;7738757;22;96363;-63
2023/07/21 01:10:56;;;;;;;;;6.50;6.00;;;;;19.25;100.00;98435.47;7737547;22;96353;-63
2023/07/21 01:14:02;;;;;;;;;5.40;5.40;;;;;19.22;100.00;98433.31;7738883;22;96292;-63
2023/07/21 01:17:08;;;;;;;;;8.00;7.40;;;;;19.14;100.00;98421.09;7711817;22;96342;-63
2023/07/21 01:20:15;;;;;;;;;5.00;5.00;;;;;19.11;100.00;98429.84;7736458;22;96585;-63
2023/07/21 01:23:28;;;;;;;;;7.00;6.50;;;;;19.02;100.00;98418.75;7738407;22;96840;-63
2023/07/21 01:26:35;;;;;;;;;8.00;8.00;;;;;18.95;100.00;98412.81;7738478;22;96373;-63
2023/07/21 01:29:42;;;;;;;;;6.00;5.00;;;;;18.92;100.00;98416.09;7738568;22;96362;-63
2023/07/21 01:32:47;;;;;;;;;8.00;8.00;;;;;18.88;100.00;98419.69;7738363;22;96418;-63
2023/07/21 01:35:51;;;;;;;;;7.00;6.00;;;;;18.84;100.00;98418.66;7711432;22;97095;-63
2023/07/21 01:38:55;;;;;;;;;4.80;4.80;;;;;18.80;100.00;98417.59;7738460;22;96381;-63
2023/07/21 01:42:01;;;;;;;;;7.80;7.40;;;;;18.75;100.00;98420.38;7736969;22;96319;-63
2023/07/21 01:45:06;;;;;;;;;4.00;4.00;;;;;18.75;100.00;98421.19;7710382;22;96318;-63
2023/07/21 01:48:10;;;;;;;;;7.50;7.50;;;;;18.70;100.00;98413.03;7738463;22;96300;-63
2023/07/21 01:51:17;;;;;;;;;6.50;6.50;;;;;18.63;100.00;98417.19;7709671;22;97209;-63
2023/07/21 01:54:26;;;;;;;;;7.40;7.40;;;;;18.64;100.00;98421.53;7710590;22;96273;-63
2023/07/21 01:57:34;;;;;;;;;8.20;8.20;;;;;18.55;100.00;98396.78;7710186;22;97940;-63
2023/07/21 02:00:41;;;;;;;;;6.00;5.20;;;;;18.67;100.00;98413.59;7710971;22;96296;-63
2023/07/21 02:03:54;;;;;;;;;8.00;8.00;;;;;18.71;100.00;98414.69;7736825;22;96242;-63
2023/07/21 02:06:57;;;;;;;;;6.40;6.40;;;;;18.78;100.00;98417.88;7736933;22;96789;-63
2023/07/21 02:10:01;;;;;;;;;7.40;7.00;;;;;18.89;100.00;98426.81;7735890;22;97548;-63
2023/07/21 02:13:07;;;;;;;;;7.00;6.40;;;;;18.98;100.00;98420.44;7711082;22;96381;-63
2023/07/21 02:16:10;;;;;;;;;7.00;7.00;;;;;19.06;100.00;98410.00;7736441;22;96712;-63
2023/07/21 02:19:15;;;;;;;;;11.00;10.00;;;;;18.98;100.00;98409.50;7736645;22;96505;-63
2023/07/21 02:22:20;;;;;;;;;8.00;7.00;;;;;18.92;100.00;98418.84;7736659;22;96316;-63
2023/07/21 02:25:24;;;;;;;;;7.25;6.25;;;;;18.77;100.00;98420.88;7737437;22;96314;-63
2023/07/21 02:28:28;;;;;;;;;5.00;5.00;;;;;18.64;100.00;98421.53;7737125;22;96798;-63
2023/07/21 02:31:31;;;;;;;;;6.00;6.00;;;;;18.56;100.00;98421.06;7709514;22;96918;-63
2023/07/21 02:34:35;;;;;;;;;6.00;6.00;;;;;18.48;100.00;98420.81;7709252;22;98963;-63
2023/07/21 02:37:38;;;;;;;;;7.00;7.00;;;;;18.40;100.00;98421.41;7709283;22;96387;-62
2023/07/21 02:40:41;;;;;;;;;8.00;7.40;;;;;18.42;100.00;98428.22;7683514;22;99156;-62
2023/07/21 02:43:46;;;;;;;;;8.00;8.00;;;;;18.47;100.00;98428.19;7737383;22;96284;-62
2023/07/21 02:46:50;;;;;;;;;6.00;5.75;;;;;18.48;100.00;98424.34;7707301;22;97694;-62
2023/07/21 02:49:53;;;;;;;;;8.00;7.00;;;;;18.50;100.00;98424.91;7736026;22;97126;-62
2023/07/21 02:52:56;;;;;;;;;7.40;7.00;;;;;18.52;100.00;98428.13;7709026;22;96555;-62
2023/07/21 02:56:00;;;;;;;;;9.00;8.40;;;;;18.52;100.00;98439.06;7731744;22;97516;-62
2023/07/21 02:59:06;;;;;;;;;12.00;10.00;;;;;18.53;100.00;98429.81;7706206;22;97010;-62
2023/07/21 03:02:10;;;;;;;;;10.00;9.60;;;;;18.56;100.00;98431.16;7731188;22;96291;-63
2023/07/21 03:05:19;;;;;;;;;8.80;8.00;;;;;18.56;100.00;98440.19;7733594;22;96930;-62
2023/07/21 03:08:28;;;;;;;;;9.50;8.50;;;;;18.59;100.00;98438.78;7735287;22;96488;-62
2023/07/21 03:11:37;;;;;;;;;10.00;9.00;;;;;18.64;100.00;98440.66;7708759;22;96556;-62
2023/07/21 03:14:54;;;;;;;;;7.00;7.00;;;;;18.66;100.00;98442.03;7735755;22;96486;-62
2023/07/21 03:17:59;;;;;;;;;10.50;9.50;;;;;18.69;100.00;98437.88;7707660;22;97345;-62
2023/07/21 03:21:07;;;;;;;;;7.00;7.00;;;;;18.71;100.00;98438.44;7735016;22;96420;-62
2023/07/21 03:24:10;;;;;;;;;9.00;8.00;;;;;18.76;100.00;98441.94;7735006;22;96602;-62
2023/07/21 03:27:14;;;;;;;;;7.00;7.00;;;;;18.76;100.00;98441.94;7736917;22;97737;-62
2023/07/21 03:30:20;;;;;;;;;9.75;9.00;;;;;18.89;100.00;98452.19;7735894;22;96198;-62
2023/07/21 03:33:44;;;;;;;;;10.00;10.00;;;;;18.96;100.00;98449.94;7734768;22;96372;-62
2023/07/21 03:36:52;;;;;;;;;8.00;8.00;;;;;19.07;100.00;98450.66;7734897;22;96327;-62
2023/07/21 03:39:56;;;;;;;;;8.00;8.00;;;;;19.18;100.00;98446.75;7733583;22;97140;-62
2023/07/21 03:43:00;;;;;;;;;7.00;7.00;;;;;19.31;100.00;98450.69;7734507;22;96320;-62
2023/07/21 03:46:06;;;;;;;;;7.00;7.00;;;;;19.43;100.00;98451.13;7731316;22;96240;-62
2023/07/21 03:49:30;;;;;;;;;5.00;5.00;;;;;19.60;100.00;98445.22;7682214;22;98526;-62
2023/07/21 03:52:41;;;;;;;;;6.00;6.00;;;;;19.69;100.00;98457.19;7705320;22;96570;-62
2023/07/21 03:55:47;;;;;;;;;7.00;6.00;;;;;19.78;100.00;98466.38;7679692;22;96719;-62
2023/07/21 03:58:50;;;;;;;;;6.00;6.00;;;;;19.85;100.00;98450.41;7679638;22;96669;-62
2023/07/21 04:01:55;;;;;;;;;8.00;7.40;;;;;19.90;100.00;98461.28;7734894;22;96404;-62
2023/07/21 04:04:58;;;;;;;;;6.50;6.25;;;;;20.00;100.00;98455.69;7736935;22;96267;-62
2023/07/21 04:08:01;;;;;;;;;7.00;7.00;;;;;20.08;100.00;98443.28;7708859;22;98531;-62
2023/07/21 04:11:05;;;;;;;;;8.00;8.00;;;;;20.06;100.00;98449.03;7736967;22;96538;-62
2023/07/21 04:14:08;;;;;;;;;8.50;8.00;;;;;20.06;100.00;98446.31;7708922;22;96308;-63
2023/07/21 04:17:12;;;;;;;;;6.00;6.00;;;;;20.09;100.00;98442.97;7708606;22;97681;-63
2023/07/21 04:20:16;;;;;;;;;5.33;5.33;;;;;20.03;100.00;98440.63;7737246;22;96273;-63
2023/07/21 04:23:19;;;;;;;;;7.00;7.00;;;;;20.04;100.00;98434.00;7709648;22;98763;-63
2023/07/21 04:26:24;;;;;;;;;8.00;7.00;;;;;20.10;100.00;98427.38;7709889;22;96260;-62
2023/07/21 04:29:27;;;;;;;;;6.00;6.00;;;;;20.16;100.00;98426.19;7710051;22;96483;-62
2023/07/21 04:32:40;;;;;;;;;4.75;4.75;;;;;20.23;100.00;98427.44;7708095;22;96368;-62
2023/07/21 04:35:45;;;;;;;;;6.50;6.00;;;;;20.24;100.00;98426.34;7732531;22;96567;-62
2023/07/21 04:38:52;;;;;;;;;6.00;5.20;;;;;20.44;100.00;98433.47;7681574;22;96693;-62
2023/07/21 04:41:57;;;;;;;;;6.00;6.00;;;;;20.55;100.00;98432.22;7707176;22;98660;-62
2023/07/21 04:45:00;;;;;;;;;7.25;7.00;;;;;20.70;100.00;98431.16;7734731;22;96218;-62
2023/07/21 04:48:06;;;;;;;;;6.00;5.00;;;;;20.84;100.00;98426.56;7683170;22;97151;-62
2023/07/21 04:51:14;;;;;;;;;5.80;5.00;;;;;20.90;100.00;98430.03;7734166;22;96522;-62
2023/07/21 04:54:18;;;;;;;;;6.50;6.00;;;;;21.05;100.00;98430.59;7734552;22;96388;-62
2023/07/21 04:57:22;;;;;;;;;7.00;6.00;;;;;21.27;100.00;98426.38;7732851;22;96868;-62
2023/07/21 05:00:27;;;;;;;;;4.25;4.25;;;;;21.40;100.00;98412.72;7734233;22;96518;-63
2023/07/21 05:03:32;;;;;;;;;5.00;4.75;;;;;21.70;100.00;98430.47;7707274;22;96521;-63
2023/07/21 05:06:35;;;;;;;;;3.20;3.20;;;;;21.92;100.00;98436.06;7704676;22;96650;-63
2023/07/21 05:09:39;;;;;;;;;4.80;4.80;;;;;22.08;100.00;98444.00;7732151;22;96417;-63
2023/07/21 05:12:47;;;;;;;;;6.00;6.00;;;;;22.26;100.00;98432.06;7734594;22;97534;-63
2023/07/21 05:16:06;;;;;;;;;6.00;6.00;;;;;22.48;100.00;98434.06;7734035;22;96302;-63
2023/07/21 05:19:29;;;;;;;;;6.00;5.00;;;;;22.68;100.00;98441.78;7735340;22;96442;-63
2023/07/21 05:22:50;;;;;;;;;6.00;6.00;;;;;22.92;100.00;98438.78;7706451;22;96667;-63
2023/07/21 05:26:13;;;;;;;;;5.00;5.00;;;;;23.09;100.00;98447.97;7732109;22;96362;-63
2023/07/21 05:29:16;;;;;;;;;5.60;4.60;;;;;23.17;100.00;98457.38;7707087;22;97033;-63
2023/07/21 05:32:21;;;;;;;;;5.00;4.00;;;;;23.23;100.00;98458.88;7732296;22;96457;-63
2023/07/21 05:35:35;;;;;;;;;6.00;6.00;;;;;23.31;100.00;98458.13;7739953;22;96841;-62
2023/07/21 05:38:49;;;;;;;;;7.20;7.20;;;;;23.38;100.00;98468.66;7742169;22;96362;-62
2023/07/21 05:41:55;;;;;;;;;7.00;6.00;;;;;23.46;100.00;98467.91;7714651;22;96650;-62
2023/07/21 05:45:01;;;;;;;;;7.00;6.00;;;;;23.49;100.00;98462.63;7717487;22;96767;-62
2023/07/21 05:48:09;;;;;;;;;6.75;5.75;;;;;23.50;100.00;98461.50;7715978;22;96888;-62
2023/07/21 05:51:18;;;;;;;;;4.00;4.00;;;;;23.53;100.00;98466.34;7717358;22;96625;-62
2023/07/21 05:54:26;;;;;;;;;7.50;7.50;;;;;23.61;100.00;98464.75;7716929;22;96401;-62
2023/07/21 05:57:30;;;;;;;;;7.00;7.00;;;;;23.65;100.00;98474.03;7746064;22;96326;-62
2023/07/21 06:00:36;;;;;;;;;6.00;6.00;;;;;23.72;100.00;98471.63;7693683;22;96641;-62
2023/07/21 06:03:40;;;;;;;;;4.20;4.00;;;;;23.82;100.00;98468.59;7721961;22;97300;-62
2023/07/21 06:06:45;;;;;;;;;7.00;6.00;;;;;23.95;100.00;98462.16;7722367;22;96287;-62
2023/07/21 06:10:08;;;;;;;;;5.00;5.00;;;;;24.17;100.00;98458.53;7748327;22;96243;-62
2023/07/21 06:13:16;;;;;;;;;5.80;5.80;;;;;24.29;100.00;98463.41;7750746;22;96387;-62
2023/07/21 06:16:46;;;;;;;;;4.60;4.00;;;;;24.37;100.00;98462.59;7714007;22;96876;-62
2023/07/21 06:19:49;;;;;;;;;3.80;3.80;;;;;24.44;100.00;98466.50;7750398;22;96632;-62
2023/07/21 06:22:54;;;;;;;;;5.00;5.00;;;;;24.53;100.00;98463.78;7750251;22;96301;-62
2023/07/21 06:25:59;;;;;;;;;6.00;6.00;;;;;24.17;100.00;98381.41;7711349;22;96770;-62
2023/07/21 06:29:03;;;;;;;;;5.50;5.50;;;;;24.93;100.00;98472.69;7734449;22;96226;-62
2023/07/21 06:32:07;;;;;;;;;6.00;6.00;;;;;25.14;100.00;98465.38;7715938;22;96191;-62
2023/07/21 06:35:23;;;;;;;;;5.50;5.50;;;;;25.20;100.00;98460.50;7712938;22;96252;-62
2023/07/21 06:38:42;;;;;;;;;6.00;5.00;;;;;25.44;100.00;98463.53;7713387;22;96817;-62
2023/07/21 06:41:45;;;;;;;;;4.00;4.00;;;;;25.58;100.00;98468.88;7716848;22;96578;-62
2023/07/21 06:45:09;;;;;;;;;4.60;4.00;;;;;25.70;100.00;98460.72;7745665;22;97203;-62
2023/07/21 06:48:32;;;;;;;;;5.60;5.00;;;;;25.77;100.00;98464.56;7726039;22;96844;-62
2023/07/21 06:51:44;;;;;;;;;4.50;4.00;;;;;25.92;100.00;98470.69;7749228;22;96373;-62
2023/07/21 06:54:50;;;;;;;;;4.75;4.75;;;;;25.67;100.00;98448.38;7746178;22;96415;-62
2023/07/21 06:57:54;;;;;;;;;6.25;6.00;;;;;25.92;100.00;98481.72;7726763;22;96300;-62
2023/07/21 07:00:57;;;;;;;;;11.00;9.00;;;;;25.93;100.00;98488.88;7753851;22;96654;-62
2023/07/21 07:04:02;;;;;;;;;4.25;4.00;;;;;26.05;100.00;98495.31;7752744;22;96977;-62
2023/07/21 07:07:06;;;;;;;;;6.00;6.00;;;;;26.27;100.00;98485.97;7757220;22;96744;-62
2023/07/21 07:10:11;;;;;;;;;5.00;5.00;;;;;26.41;100.00;98483.75;7757082;22;96364;-62
2023/07/21 07:13:14;;;;;;;;;5.00;5.00;;;;;26.58;100.00;98488.38;7729455;22;96237;-62
2023/07/21 07:16:18;;;;;;;;;8.00;6.00;;;;;26.72;100.00;98486.16;7729279;22;96713;-62
2023/07/21 07:19:21;;;;;;;;;5.25;5.00;;;;;26.90;100.00;98484.88;7749554;22;96226;-61
2023/07/21 07:22:25;;;;;;;;;5.00;4.60;;;;;26.91;100.00;98480.16;7692449;22;98378;-62
2023/07/21 07:25:30;;;;;;;;;3.20;3.20;;;;;26.90;100.00;98484.09;7744304;22;96438;-61
2023/07/21 07:28:33;;;;;;;;;7.00;6.00;;;;;26.90;100.00;98478.53;7717486;22;96260;-62
2023/07/21 07:31:37;;;;;;;;;5.00;4.00;;;;;26.98;100.00;98484.00;7745026;22;96339;-61
2023/07/21 07:34:41;;;;;;;;;9.00;7.00;;;;;27.14;100.00;98481.41;7745863;22;96568;-61
2023/07/21 07:37:44;;;;;;;;;6.00;6.00;;;;;27.23;100.00;98470.25;7746454;22;96200;-61
2023/07/21 07:40:49;;;;;;;;;7.00;6.00;;;;;27.38;100.00;98473.19;7718556;22;96645;-62
2023/07/21 07:43:53;;;;;;;;;6.00;5.00;;;;;27.58;100.00;98466.81;7746173;22;96365;-62
2023/07/21 07:46:56;;;;;;;;;5.80;4.80;;;;;27.72;100.00;98465.66;7717580;22;98873;-62
2023/07/21 07:50:00;;;;;;;;;6.00;6.00;;;;;27.98;100.00;98475.28;7745295;22;96336;-62
2023/07/21 07:53:03;;;;;;;;;6.00;6.00;;;;;28.21;100.00;98477.59;7747309;22;96406;-62
2023/07/21 07:56:14;;;;;;;;;5.60;5.00;;;;;28.20;100.00;98476.00;7720067;22;96724;-61
2023/07/21 07:59:18;;;;;;;;;4.00;4.00;;;;;28.18;100.00;98470.81;7719509;22;99046;-61
2023/07/21 08:02:21;;;;;;;;;5.60;5.60;;;;;28.27;100.00;98473.47;7719427;22;96177;-61
2023/07/21 08:05:24;;;;;;;;;6.00;6.00;;;;;28.42;100.00;98476.34;7718964;22;98796;-61
2023/07/21 08:08:27;;;;;;;;;6.00;6.00;;;;;28.71;100.00;98482.75;7745233;22;96318;-62
2023/07/21 08:11:32;;;;;;;;;6.40;6.40;;;;;28.96;100.00;98483.50;7747471;22;96292;-61
2023/07/21 08:14:35;;;;;;;;;8.00;7.00;;;;;29.09;100.00;98471.19;7720372;22;96332;-61
2023/07/21 08:17:39;;;;;;;;;6.00;6.00;;;;;28.98;100.00;98470.09;7719626;22;96737;-62
2023/07/21 08:20:43;;;;;;;;;7.00;6.20;;;;;29.03;100.00;98461.53;7745411;22;96859;-62
2023/07/21 08:23:47;;;;;;;;;7.00;6.00;;;;;29.22;100.00;98456.09;7746369;22;96238;-62
2023/07/21 08:26:51;;;;;;;;;8.00;7.00;;;;;29.23;100.00;98466.03;7720164;22;96355;-62
2023/07/21 08:29:54;;;;;;;;;7.00;7.00;;;;;29.26;100.00;98460.59;7746887;22;96241;-62
2023/07/21 08:32:58;;;;;;;;;6.00;6.00;;;;;29.44;100.00;98449.19;7746282;22;96401;-62
2023/07/21 08:36:02;;;;;;;;;6.80;6.00;;;;;29.65;100.00;98447.78;7716559;22;96847;-61
2023/07/21 08:39:05;;;;;;;;;6.75;6.75;;;;;29.84;100.00;98451.81;7716345;22;97639;-62
2023/07/21 08:42:11;;;;;;;;;5.40;5.00;;;;;30.08;100.00;98438.53;7744725;22;96923;-62
2023/07/21 08:45:19;;;;;;;;;6.00;6.00;;;;;30.54;100.00;98411.00;7717105;22;96470;-62
2023/07/21 08:48:26;;;;;;;;;5.00;5.00;;;;;31.06;95.96;98431.97;7743285;22;96777;-62
2023/07/21 08:51:30;;;;;;;;;5.00;4.00;;;;;31.58;91.20;98454.47;7717739;22;98828;-62
2023/07/21 08:54:34;;;;;;;;;7.00;6.00;;;;;31.63;93.62;98415.16;7713939;22;97179;-63
2023/07/21 08:57:39;;;;;;;;;3.40;3.40;;;;;32.36;93.64;98444.63;7687981;22;96349;-63
2023/07/21 09:00:43;;;;;;;;;4.60;4.00;;;;;32.78;88.42;98447.25;7713072;22;96646;-62
2023/07/21 09:03:47;;;;;;;;;6.00;4.50;;;;;33.06;82.56;98452.38;7742540;22;96327;-63
2023/07/21 09:06:51;;;;;;;;;5.00;5.00;;;;;32.95;77.56;98448.63;7742135;22;96336;-62
2023/07/21 09:09:55;;;;;;;;;5.00;4.40;;;;;32.91;76.83;98448.59;7743154;22;96833;-64
2023/07/21 09:12:59;;;;;;;;;3.50;3.00;;;;;32.78;72.76;98450.03;7743388;22;96392;-62
2023/07/21 09:16:05;;;;;;;;;4.00;3.00;;;;;32.76;76.16;98452.41;7740154;22;99012;-62
2023/07/21 09:19:10;;;;;;;;;3.25;3.25;;;;;32.95;77.12;98443.88;7716776;22;96311;-62
2023/07/21 09:22:13;;;;;;;;;5.00;3.00;;;;;32.69;70.62;98445.94;7743711;22;96308;-62
2023/07/21 09:25:21;;;;;;;;;3.60;3.00;;;;;32.67;77.74;98447.09;7744315;22;96349;-62
2023/07/21 09:28:40;;;;;;;;;5.00;5.00;;;;;32.42;73.84;98439.53;7743750;22;96274;-62
2023/07/21 09:31:44;;;;;;;;;5.00;5.00;;;;;32.43;80.63;98455.09;7742616;22;96304;-63
2023/07/21 09:34:55;;;;;;;;;2.75;2.75;;;;;32.30;78.31;98454.53;7716567;22;98426;-62
2023/07/21 09:38:00;;;;;;;;;4.60;4.60;;;;;32.29;78.38;98447.31;7744642;22;96325;-62
2023/07/21 09:41:06;;;;;;;;;3.50;3.50;;;;;32.19;78.35;98448.78;7716401;22;98478;-62
2023/07/21 09:44:12;;;;;;;;;4.00;4.00;;;;;32.15;82.04;98435.97;7743794;22;96237;-62
2023/07/21 09:47:16;;;;;;;;;4.00;4.00;;;;;32.03;79.78;98442.50;7717699;22;97131;-62
2023/07/21 09:50:20;;;;;;;;;4.75;4.00;;;;;32.04;81.86;98435.75;7743995;22;96232;-62
2023/07/21 09:53:25;;;;;;;;;5.00;5.00;;;;;32.05;83.46;98433.78;7743316;22;96285;-63
2023/07/21 09:56:32;;;;;;;;;4.00;4.00;;;;;32.05;81.72;98433.78;7715448;22;96783;-63
2023/07/21 09:59:40;;;;;;;;;4.00;4.00;;;;;31.99;77.88;98419.34;7744889;22;96171;-62
2023/07/21 10:02:46;;;;;;;;;4.00;4.00;;;;;32.07;81.73;98429.41;7691348;22;96587;-63
2023/07/21 10:05:50;;;;;;;;;4.00;4.00;;;;;32.13;79.00;98433.53;7744419;22;96828;-62
2023/07/21 10:08:54;;;;;;;;;3.75;3.00;;;;;32.11;71.76;98432.28;7717404;22;96470;-63
2023/07/21 10:12:10;;;;;;;;;4.00;4.00;;;;;32.18;81.61;98424.03;7716282;22;98754;-62
2023/07/21 10:15:17;;;;;;;;;3.00;3.00;;;;;32.33;77.35;98425.88;7743382;22;96277;-62
2023/07/21 10:18:20;;;;;;;;;4.00;4.00;;;;;32.37;75.55;98431.47;7716388;22;96615;-62
2023/07/21 10:21:23;;;;;;;;;4.00;4.00;;;;;32.22;73.83;98431.28;7716699;22;98347;-62
2023/07/21 10:24:28;;;;;;;;;5.00;5.00;;;;;32.22;73.75;98427.69;7743053;22;96504;-63
2023/07/21 10:27:32;;;;;;;;;4.00;4.00;;;;;32.09;75.83;98429.88;7716008;22;96336;-62
2023/07/21 10:30:36;;;;;;;;;4.00;4.00;;;;;32.20;72.50;98433.66;7714279;22;97179;-62
2023/07/21 10:33:40;;;;;;;;;4.00;4.00;;;;;32.16;73.04;98429.19;7743035;22;96228;-62
2023/07/21 10:36:49;;;;;;;;;5.75;5.25;;;;;32.03;73.07;98422.19;7741265;22;96478;-62
2023/07/21 10:39:54;;;;;;;;;5.00;5.00;;;;;32.27;77.39;98415.41;7701341;22;96327;-63
2023/07/21 10:42:58;;;;;;;;;4.75;4.50;;;;;32.43;75.47;98414.06;7716002;22;96513;-63
2023/07/21 10:46:06;;;;;;;;;4.00;4.00;;;;;32.45;71.65;98416.47;7742741;22;96357;-62
2023/07/21 10:49:10;;;;;;;;;4.25;4.00;;;;;32.37;73.02;98414.75;7742417;22;96385;-62
2023/07/21 10:52:14;;;;;;;;;5.00;4.50;;;;;32.32;76.68;98410.31;7740328;22;96411;-62
2023/07/21 10:55:19;;;;;;;;;4.40;4.40;;;;;32.36;78.14;98411.16;7739491;22;96482;-62
2023/07/21 10:58:23;;;;;;;;;5.00;5.00;;;;;32.59;71.30;98405.50;7743795;22;96923;-62
2023/07/21 11:01:28;;;;;;;;;4.00;4.00;;;;;32.61;71.40;98408.69;7743843;22;96230;-64
2023/07/21 11:04:32;;;;;;;;;4.00;4.00;;;;;32.58;71.68;98401.91;7742542;22;96342;-62
2023/07/21 11:07:35;;;;;;;;;5.00;5.00;;;;;32.54;69.87;98409.44;7715973;22;97092;-63
2023/07/21 11:10:38;;;;;;;;;4.00;4.00;;;;;32.47;76.23;98408.50;7716193;22;96590;-62
2023/07/21 11:13:45;;;;;;;;;3.80;3.00;;;;;32.39;75.67;98407.63;7744803;22;96397;-62
2023/07/21 11:16:53;;;;;;;;;4.00;4.00;;;;;32.16;76.06;98406.88;7744801;22;96205;-62
2023/07/21 11:19:56;;;;;;;;;5.00;5.00;;;;;32.04;79.00;98405.09;7744495;22;96373;-63
2023/07/21 11:23:00;;;;;;;;;5.00;4.40;;;;;31.84;73.78;98398.00;7691072;22;96622;-62
2023/07/21 11:26:06;;;;;;;;;5.00;5.00;;;;;31.76;81.46;98394.28;7716849;22;96297;-62
2023/07/21 11:29:09;;;;;;;;;4.80;4.00;;;;;31.68;77.46;98394.53;7716929;22;96588;-62
2023/07/21 11:32:22;;;;;;;;;4.60;4.60;;;;;31.80;81.44;98397.13;7717513;22;96781;-62
2023/07/21 11:35:33;;;;;;;;;4.40;4.40;;;;;31.38;74.51;98395.19;7744434;22;97010;-62
2023/07/21 11:38:37;;;;;;;;;4.50;4.00;;;;;31.46;76.69;98389.75;7716623;22;98475;-63
2023/07/21 11:41:51;;;;;;;;;4.75;4.00;;;;;31.49;76.19;98380.66;7716324;22;96456;-62
2023/07/21 11:44:55;;;;;;;;;4.60;4.00;;;;;31.56;77.93;98378.00;7692113;22;98451;-64
2023/07/21 11:47:59;;;;;;;;;3.75;3.75;;;;;31.51;80.98;98376.31;7744973;22;97511;-62
2023/07/21 11:51:05;;;;;;;;;5.00;4.40;;;;;31.18;82.04;98376.13;7743351;22;96252;-62
2023/07/21 11:54:19;;;;;;;;;3.00;3.00;;;;;31.18;87.58;98370.56;7743285;22;96241;-62
2023/07/21 11:57:22;;;;;;;;;3.80;3.80;;;;;30.99;83.26;98357.44;7744440;22;96717;-62
2023/07/21 12:00:27;;;;;;;;;6.50;5.00;;;;;30.63;85.12;98358.75;7691572;22;98464;-62
2023/07/21 12:03:31;;;;;;;;;5.20;5.00;;;;;30.57;85.96;98359.38;7717338;22;99090;-62
2023/07/21 12:06:35;;;;;;;;;3.00;3.00;;;;;30.52;86.10;98355.72;7743411;22;96862;-63
2023/07/21 12:09:38;;;;;;;;;4.00;4.00;;;;;30.47;86.97;98346.88;7689126;22;98735;-63
2023/07/21 12:12:42;;;;;;;;;7.00;6.40;;;;;30.10;85.15;98347.22;7743380;22;96328;-63
2023/07/21 12:15:45;;;;;;;;;4.00;4.00;;;;;29.67;87.08;98337.06;7742582;22;96278;-63
2023/07/21 12:18:50;;;;;;;;;3.60;3.60;;;;;29.85;95.09;98354.19;7715052;22;99458;-62
2023/07/21 12:21:54;;;;;;;;;5.00;4.00;;;;;29.80;89.29;98362.81;7741618;22;96263;-62
2023/07/21 12:24:57;;;;;;;;;6.00;4.00;;;;;29.73;92.70;98365.41;7716454;22;96364;-62
2023/07/21 12:28:01;;;;;;;;;5.00;5.00;;;;;29.61;88.36;98357.19;7741851;22;96782;-62
2023/07/21 12:31:05;;;;;;;;;4.00;4.00;;;;;29.49;89.94;98360.84;7742431;22;96230;-62
2023/07/21 12:34:10;;;;;;;;;4.00;4.00;;;;;29.29;95.52;98359.91;7713834;22;97322;-62
2023/07/21 12:37:13;;;;;;;;;5.20;4.00;;;;;29.22;96.69;98362.50;7741357;22;96581;-61
2023/07/21 12:40:17;;;;;;;;;4.75;4.00;;;;;28.79;95.54;98354.19;7712995;22;96631;-62
2023/07/21 12:43:20;;;;;;;;;3.00;3.00;;;;;28.69;99.11;98360.22;7739855;22;96284;-62
2023/07/21 12:46:23;;;;;;;;;4.50;4.00;;;;;28.59;100.00;98364.31;7740724;22;96514;-62
2023/07/21 12:49:28;;;;;;;;;4.00;3.80;;;;;28.66;100.00;98369.25;7744579;22;96413;-62
2023/07/21 12:52:32;;;;;;;;;5.00;5.00;;;;;28.74;100.00;98360.00;7744043;22;96993;-63
2023/07/21 12:55:35;;;;;;;;;5.00;4.00;;;;;29.07;100.00;98368.06;7744636;22;96258;-63
2023/07/21 12:58:38;;;;;;;;;4.40;3.80;;;;;29.18;95.75;98374.66;7745669;22;96913;-62
2023/07/21 13:01:42;;;;;;;;;5.00;5.00;;;;;29.48;100.00;98363.97;7745434;22;96471;-62
2023/07/21 13:04:48;;;;;;;;;4.40;4.00;;;;;29.76;100.00;98369.44;7717710;22;98474;-62
2023/07/21 13:07:51;;;;;;;;;5.80;5.00;;;;;29.83;96.16;98359.28;7717872;22;96340;-63
2023/07/21 13:10:55;;;;;;;;;4.20;4.20;;;;;29.89;97.16;98362.63;7744099;22;96320;-62
2023/07/21 13:13:58;;;;;;;;;4.60;4.60;;;;;30.10;100.00;98363.13;7744951;22;96222;-63
2023/07/21 13:17:03;;;;;;;;;5.00;5.00;;;;;30.28;99.21;98374.63;7745742;22;96344;-62
2023/07/21 13:20:13;;;;;;;;;4.60;4.60;;;;;30.13;100.00;98357.66;7745962;22;96197;-62
2023/07/21 13:23:16;;;;;;;;;6.00;5.60;;;;;30.07;100.00;98355.50;7745543;22;96517;-62
2023/07/21 13:26:24;;;;;;;;;5.00;5.00;;;;;30.05;100.00;98355.06;7743404;22;96262;-62
2023/07/21 13:29:28;;;;;;;;;4.00;4.00;;;;;30.03;100.00;98360.97;7716677;22;98355;-63
2023/07/21 13:32:32;;;;;;;;;4.00;4.00;;;;;29.37;100.00;98347.03;7718644;22;96689;-62
2023/07/21 13:35:36;;;;;;;;;5.75;5.00;;;;;29.35;100.00;98356.91;7716131;22;96621;-62
2023/07/21 13:38:40;;;;;;;;;5.00;5.00;;;;;29.10;100.00;98359.81;7745571;22;96265;-63
2023/07/21 13:41:44;;;;;;;;;4.00;4.00;;;;;28.68;100.00;98342.78;7745341;22;96320;-62
2023/07/21 13:44:47;;;;;;;;;4.00;4.00;;;;;28.70;100.00;98334.09;7744202;22;96343;-62
2023/07/21 13:47:51;;;;;;;;;4.80;4.80;;;;;28.78;100.00;98322.88;7715061;22;96178;-63
2023/07/21 13:50:55;;;;;;;;;5.00;4.00;;;;;28.80;100.00;98314.19;7740978;22;96376;-62
2023/07/21 13:53:58;;;;;;;;;5.00;5.00;;;;;28.97;100.00;98324.16;7741641;22;96500;-62
2023/07/21 13:57:02;;;;;;;;;4.20;3.20;;;;;28.90;100.00;98327.56;7743213;22;96452;-63
2023/07/21 14:00:07;;;;;;;;;4.00;4.00;;;;;28.30;100.00;98323.84;7741779;22;96591;-62
2023/07/21 14:03:15;;;;;;;;;5.25;5.25;;;;;28.39;100.00;98323.72;7690651;22;96742;-62
2023/07/21 14:06:20;;;;;;;;;5.00;5.00;;;;;28.53;100.00;98328.88;7713885;22;98571;-62
2023/07/21 14:09:23;;;;;;;;;5.80;4.80;;;;;28.29;100.00;98329.78;7739461;22;96583;-62
2023/07/21 14:12:26;;;;;;;;;4.00;4.00;;;;;28.13;100.00;98324.16;7711618;22;98367;-63
2023/07/21 14:15:29;;;;;;;;;5.20;5.00;;;;;27.84;100.00;98319.69;7741038;22;96602;-63
2023/07/21 14:18:32;;;;;;;;;8.00;8.00;;;;;27.62;100.00;98320.16;7740241;22;96753;-63
2023/07/21 14:21:37;;;;;;;;;6.60;6.60;;;;;27.70;100.00;98312.91;7742777;22;96352;-63
2023/07/21 14:24:40;;;;;;;;;5.20;5.00;;;;;27.67;100.00;98308.84;7738400;22;96792;-63